sensor_id;sensor_type;location;lat;lon;timestamp;temperature;humidity
55054;DHT22;40954;45.668;18.980;2022-10-31T00:01:34;359.00;2329.60
55054;DHT22;40954;45.668;18.980;2022-10-31T00:04:00;359.00;2227.20
55054;DHT22;40954;45.668;18.980;2022-10-31T00:06:27;358.90;2329.60
55054;DHT22;40954;45.668;18.980;2022-10-31T00:08:58;358.80;2329.60
55054;DHT22;40954;45.668;18.980;2022-10-31T00:11:24;358.80;2329.60
55054;DHT22;40954;45.668;18.980;2022-10-31T00:13:51;358.90;2329.60
55054;DHT22;40954;45.668;18.980;2022-10-31T00:16:18;358.90;2329.60
55054;DHT22;40954;45.668;18.980;2022-10-31T00:18:48;358.90;2329.60
55054;DHT22;40954;45.668;18.980;2022-10-31T00:21:15;358.90;2329.60
55054;DHT22;40954;45.668;18.980;2022-10-31T00:23:41;359.00;2329.60
55054;DHT22;40954;45.668;18.980;2022-10-31T00:26:06;358.90;2329.60
55054;DHT22;40954;45.668;18.980;2022-10-31T00:28:33;358.90;2329.60
55054;DHT22;40954;45.668;18.980;2022-10-31T00:31:03;358.90;2329.60
55054;DHT22;40954;45.668;18.980;2022-10-31T00:33:29;358.90;2329.60
55054;DHT22;40954;45.668;18.980;2022-10-31T00:35:55;358.80;2329.60
55054;DHT22;40954;45.668;18.980;2022-10-31T00:38:21;358.90;2329.60
55054;DHT22;40954;45.668;18.980;2022-10-31T00:40:47;358.90;2329.60
55054;DHT22;40954;45.668;18.980;2022-10-31T00:43:12;358.90;2329.60
55054;DHT22;40954;45.668;18.980;2022-10-31T00:45:38;358.80;2329.60
55054;DHT22;40954;45.668;18.980;2022-10-31T00:48:04;358.80;2329.60
55054;DHT22;40954;45.668;18.980;2022-10-31T00:50:30;358.90;2329.60
55054;DHT22;40954;45.668;18.980;2022-10-31T00:52:56;358.70;2329.60
55054;DHT22;40954;45.668;18.980;2022-10-31T00:55:22;358.70;2329.60
55054;DHT22;40954;45.668;18.980;2022-10-31T00:57:48;358.80;2329.60
55054;DHT22;40954;45.668;18.980;2022-10-31T01:00:14;358.80;2329.60
55054;DHT22;40954;45.668;18.980;2022-10-31T01:02:40;358.70;2329.60
55054;DHT22;40954;45.668;18.980;2022-10-31T01:05:06;358.70;2329.60
55054;DHT22;40954;45.668;18.980;2022-10-31T01:07:35;358.80;2329.60
55054;DHT22;40954;45.668;18.980;2022-10-31T01:10:00;358.70;2329.60
55054;DHT22;40954;45.668;18.980;2022-10-31T01:12:26;358.70;2329.60
55054;DHT22;40954;45.668;18.980;2022-10-31T01:14:52;358.70;2329.60
55054;DHT22;40954;45.668;18.980;2022-10-31T01:17:17;358.70;2329.60
55054;DHT22;40954;45.668;18.980;2022-10-31T01:19:43;358.60;2329.60
55054;DHT22;40954;45.668;18.980;2022-10-31T01:22:10;358.70;2329.60
55054;DHT22;40954;45.668;18.980;2022-10-31T01:24:35;358.70;2329.60
55054;DHT22;40954;45.668;18.980;2022-10-31T01:27:01;358.70;2329.60
55054;DHT22;40954;45.668;18.980;2022-10-31T01:29:27;358.70;2329.60
55054;DHT22;40954;45.668;18.980;2022-10-31T01:31:53;358.70;2329.60
55054;DHT22;40954;45.668;18.980;2022-10-31T01:34:18;358.70;2329.60
55054;DHT22;40954;45.668;18.980;2022-10-31T01:36:45;358.60;2329.60
55054;DHT22;40954;45.668;18.980;2022-10-31T01:39:17;358.70;2329.60
55054;DHT22;40954;45.668;18.980;2022-10-31T01:41:45;358.70;2329.60
55054;DHT22;40954;45.668;18.980;2022-10-31T01:52:16;358.60;2329.60
55054;DHT22;40954;45.668;18.980;2022-10-31T01:55:09;358.50;2329.60
55054;DHT22;40954;45.668;18.980;2022-10-31T01:57:35;358.50;2329.60
55054;DHT22;40954;45.668;18.980;2022-10-31T02:00:06;358.40;2329.60
55054;DHT22;40954;45.668;18.980;2022-10-31T02:02:32;358.40;2329.60
55054;DHT22;40954;45.668;18.980;2022-10-31T02:05:01;358.50;2329.60
55054;DHT22;40954;45.668;18.980;2022-10-31T02:07:32;358.50;2329.60
55054;DHT22;40954;45.668;18.980;2022-10-31T02:10:00;358.50;2329.60
55054;DHT22;40954;45.668;18.980;2022-10-31T02:12:26;358.50;2329.60
55054;DHT22;40954;45.668;18.980;2022-10-31T02:14:52;358.40;2329.60
55054;DHT22;40954;45.668;18.980;2022-10-31T02:17:18;358.50;2329.60
55054;DHT22;40954;45.668;18.980;2022-10-31T02:22:30;358.60;2329.60
55054;DHT22;40954;45.668;18.980;2022-10-31T02:46:23;358.70;2329.60
55054;DHT22;40954;45.668;18.980;2022-10-31T02:48:52;358.70;2329.60
55054;DHT22;40954;45.668;18.980;2022-10-31T02:51:20;358.70;2329.60
55054;DHT22;40954;45.668;18.980;2022-10-31T02:53:46;358.60;2329.60
55054;DHT22;40954;45.668;18.980;2022-10-31T02:56:16;358.60;2329.60
55054;DHT22;40954;45.668;18.980;2022-10-31T02:59:02;358.60;2329.60
55054;DHT22;40954;45.668;18.980;2022-10-31T03:09:55;358.60;2329.60
55054;DHT22;40954;45.668;18.980;2022-10-31T03:12:38;358.60;2329.60
55054;DHT22;40954;45.668;18.980;2022-10-31T03:20:23;358.50;2329.60
55054;DHT22;40954;45.668;18.980;2022-10-31T03:22:51;358.50;2329.60
55054;DHT22;40954;45.668;18.980;2022-10-31T03:25:18;358.50;2329.60
55054;DHT22;40954;45.668;18.980;2022-10-31T03:27:44;358.50;2329.60
55054;DHT22;40954;45.668;18.980;2022-10-31T03:30:11;358.50;2329.60
55054;DHT22;40954;45.668;18.980;2022-10-31T03:32:50;358.50;2329.60
55054;DHT22;40954;45.668;18.980;2022-10-31T03:35:19;358.60;2329.60
55054;DHT22;40954;45.668;18.980;2022-10-31T03:37:47;358.60;2329.60
55054;DHT22;40954;45.668;18.980;2022-10-31T03:40:16;358.50;2329.60
55054;DHT22;40954;45.668;18.980;2022-10-31T03:42:48;358.50;2329.60
55054;DHT22;40954;45.668;18.980;2022-10-31T03:45:22;358.50;2329.60
55054;DHT22;40954;45.668;18.980;2022-10-31T03:47:49;358.50;2329.60
55054;DHT22;40954;45.668;18.980;2022-10-31T03:50:15;358.40;2329.60
55054;DHT22;40954;45.668;18.980;2022-10-31T03:52:47;358.40;1996.80
55054;DHT22;40954;45.668;18.980;2022-10-31T03:58:02;358.50;2329.60
55054;DHT22;40954;45.668;18.980;2022-10-31T04:00:31;358.40;2329.60
55054;DHT22;40954;45.668;18.980;2022-10-31T04:03:04;358.40;2329.60
55054;DHT22;40954;45.668;18.980;2022-10-31T04:05:31;358.40;2329.60
55054;DHT22;40954;45.668;18.980;2022-10-31T04:07:58;358.40;2329.60
55054;DHT22;40954;45.668;18.980;2022-10-31T04:10:27;358.40;2329.60
55054;DHT22;40954;45.668;18.980;2022-10-31T04:13:02;358.40;2329.60
55054;DHT22;40954;45.668;18.980;2022-10-31T04:15:30;358.40;2329.60
55054;DHT22;40954;45.668;18.980;2022-10-31T04:17:58;358.40;2329.60
55054;DHT22;40954;45.668;18.980;2022-10-31T04:20:39;358.50;2329.60
55054;DHT22;40954;45.668;18.980;2022-10-31T04:23:22;358.40;2329.60
55054;DHT22;40954;45.668;18.980;2022-10-31T04:25:48;358.40;2329.60
55054;DHT22;40954;45.668;18.980;2022-10-31T04:28:14;358.40;2329.60
55054;DHT22;40954;45.668;18.980;2022-10-31T04:30:40;358.40;2329.60
55054;DHT22;40954;45.668;18.980;2022-10-31T04:33:05;358.40;2329.60
55054;DHT22;40954;45.668;18.980;2022-10-31T04:35:31;333.70;2329.60
55054;DHT22;40954;45.668;18.980;2022-10-31T04:37:57;333.70;2329.60
55054;DHT22;40954;45.668;18.980;2022-10-31T04:40:22;333.70;2329.60
55054;DHT22;40954;45.668;18.980;2022-10-31T04:42:48;333.60;2329.60
55054;DHT22;40954;45.668;18.980;2022-10-31T04:45:14;333.70;2329.60
55054;DHT22;40954;45.668;18.980;2022-10-31T04:47:40;333.60;2329.60
55054;DHT22;40954;45.668;18.980;2022-10-31T04:50:05;333.60;2329.60
55054;DHT22;40954;45.668;18.980;2022-10-31T04:52:31;333.60;2329.60
55054;DHT22;40954;45.668;18.980;2022-10-31T04:54:57;333.60;2329.60
55054;DHT22;40954;45.668;18.980;2022-10-31T04:57:23;333.60;2329.60
55054;DHT22;40954;45.668;18.980;2022-10-31T04:59:48;333.60;2329.60
55054;DHT22;40954;45.668;18.980;2022-10-31T05:02:14;333.60;2329.60
55054;DHT22;40954;45.668;18.980;2022-10-31T05:04:40;333.60;2329.60
55054;DHT22;40954;45.668;18.980;2022-10-31T05:07:05;333.60;2329.60
55054;DHT22;40954;45.668;18.980;2022-10-31T05:09:31;333.60;2329.60
55054;DHT22;40954;45.668;18.980;2022-10-31T05:11:57;333.60;2329.60
55054;DHT22;40954;45.668;18.980;2022-10-31T05:14:22;333.60;2329.60
55054;DHT22;40954;45.668;18.980;2022-10-31T05:16:48;333.60;2329.60
55054;DHT22;40954;45.668;18.980;2022-10-31T05:19:14;333.60;2329.60
55054;DHT22;40954;45.668;18.980;2022-10-31T05:21:39;333.60;2329.60
55054;DHT22;40954;45.668;18.980;2022-10-31T05:24:05;333.70;2329.60
55054;DHT22;40954;45.668;18.980;2022-10-31T05:26:31;333.70;2329.60
55054;DHT22;40954;45.668;18.980;2022-10-31T05:28:57;333.60;2329.60
55054;DHT22;40954;45.668;18.980;2022-10-31T05:31:23;333.60;2329.60
55054;DHT22;40954;45.668;18.980;2022-10-31T05:33:48;333.60;2329.60
55054;DHT22;40954;45.668;18.980;2022-10-31T05:36:14;333.60;2329.60
55054;DHT22;40954;45.668;18.980;2022-10-31T05:38:40;333.50;2329.60
55054;DHT22;40954;45.668;18.980;2022-10-31T05:41:05;333.60;2329.60
55054;DHT22;40954;45.668;18.980;2022-10-31T05:43:31;333.60;2329.60
55054;DHT22;40954;45.668;18.980;2022-10-31T05:45:57;333.60;2329.60
55054;DHT22;40954;45.668;18.980;2022-10-31T05:48:23;333.60;2329.60
55054;DHT22;40954;45.668;18.980;2022-10-31T05:50:49;333.60;2329.60
55054;DHT22;40954;45.668;18.980;2022-10-31T05:53:15;333.60;2329.60
55054;DHT22;40954;45.668;18.980;2022-10-31T05:55:42;333.60;2329.60
55054;DHT22;40954;45.668;18.980;2022-10-31T05:58:08;333.60;2329.60
55054;DHT22;40954;45.668;18.980;2022-10-31T06:00:34;333.60;2329.60
55054;DHT22;40954;45.668;18.980;2022-10-31T06:03:08;333.60;2329.60
55054;DHT22;40954;45.668;18.980;2022-10-31T06:05:34;333.60;2201.60
55054;DHT22;40954;45.668;18.980;2022-10-31T06:08:00;333.60;2329.60
55054;DHT22;40954;45.668;18.980;2022-10-31T06:10:26;333.60;2329.60
55054;DHT22;40954;45.668;18.980;2022-10-31T06:12:52;333.70;2329.60
55054;DHT22;40954;45.668;18.980;2022-10-31T06:15:18;333.70;2329.60
55054;DHT22;40954;45.668;18.980;2022-10-31T06:17:44;333.70;2329.60
55054;DHT22;40954;45.668;18.980;2022-10-31T06:20:10;333.70;2329.60
55054;DHT22;40954;45.668;18.980;2022-10-31T06:22:36;333.70;2329.60
55054;DHT22;40954;45.668;18.980;2022-10-31T06:25:02;333.60;2329.60
55054;DHT22;40954;45.668;18.980;2022-10-31T06:27:28;333.70;2329.60
55054;DHT22;40954;45.668;18.980;2022-10-31T06:29:53;333.70;2329.60
55054;DHT22;40954;45.668;18.980;2022-10-31T06:32:19;333.70;2329.60
55054;DHT22;40954;45.668;18.980;2022-10-31T06:34:45;358.40;2329.60
55054;DHT22;40954;45.668;18.980;2022-10-31T06:37:13;358.40;2329.60
55054;DHT22;40954;45.668;18.980;2022-10-31T06:39:39;358.40;2329.60
55054;DHT22;40954;45.668;18.980;2022-10-31T06:42:05;358.40;2329.60
55054;DHT22;40954;45.668;18.980;2022-10-31T06:44:31;358.50;2329.60
55054;DHT22;40954;45.668;18.980;2022-10-31T06:46:57;358.50;2329.60
55054;DHT22;40954;45.668;18.980;2022-10-31T06:49:23;358.50;2329.60
55054;DHT22;40954;45.668;18.980;2022-10-31T06:51:49;358.50;2329.60
55054;DHT22;40954;45.668;18.980;2022-10-31T06:54:15;358.50;2329.60
55054;DHT22;40954;45.668;18.980;2022-10-31T06:56:41;358.40;2329.60
55054;DHT22;40954;45.668;18.980;2022-10-31T06:59:07;358.60;2329.60
55054;DHT22;40954;45.668;18.980;2022-10-31T07:01:33;358.70;2329.60
55054;DHT22;40954;45.668;18.980;2022-10-31T07:03:59;358.70;2329.60
55054;DHT22;40954;45.668;18.980;2022-10-31T07:06:25;358.70;2329.60
55054;DHT22;40954;45.668;18.980;2022-10-31T07:08:50;358.70;2329.60
55054;DHT22;40954;45.668;18.980;2022-10-31T07:11:16;358.80;2329.60
55054;DHT22;40954;45.668;18.980;2022-10-31T07:13:42;358.80;2329.60
55054;DHT22;40954;45.668;18.980;2022-10-31T07:16:08;358.90;2329.60
55054;DHT22;40954;45.668;18.980;2022-10-31T07:18:37;358.90;2329.60
55054;DHT22;40954;45.668;18.980;2022-10-31T07:21:03;358.90;2329.60
55054;DHT22;40954;45.668;18.980;2022-10-31T07:23:29;359.00;2329.60
55054;DHT22;40954;45.668;18.980;2022-10-31T07:25:58;359.00;2329.60
55054;DHT22;40954;45.668;18.980;2022-10-31T07:28:26;359.10;2329.60
55054;DHT22;40954;45.668;18.980;2022-10-31T07:30:56;359.10;2329.60
55054;DHT22;40954;45.668;18.980;2022-10-31T07:33:22;359.10;2329.60
55054;DHT22;40954;45.668;18.980;2022-10-31T07:35:48;359.10;2329.60
55054;DHT22;40954;45.668;18.980;2022-10-31T07:38:14;359.20;2329.60
55054;DHT22;40954;45.668;18.980;2022-10-31T07:40:41;359.00;2329.60
55054;DHT22;40954;45.668;18.980;2022-10-31T07:43:08;359.10;2329.60
55054;DHT22;40954;45.668;18.980;2022-10-31T07:45:34;359.20;2304.00
55054;DHT22;40954;45.668;18.980;2022-10-31T07:47:59;359.30;2124.80
55054;DHT22;40954;45.668;18.980;2022-10-31T07:50:27;359.20;2329.60
55054;DHT22;40954;45.668;18.980;2022-10-31T07:53:06;359.20;2329.60
55054;DHT22;40954;45.668;18.980;2022-10-31T07:55:32;359.30;2329.60
55054;DHT22;40954;45.668;18.980;2022-10-31T07:57:59;359.30;2329.60
55054;DHT22;40954;45.668;18.980;2022-10-31T08:00:25;359.30;2329.60
55054;DHT22;40954;45.668;18.980;2022-10-31T08:03:02;359.30;2329.60
55054;DHT22;40954;45.668;18.980;2022-10-31T08:05:29;384.00;2022.40
55054;DHT22;40954;45.668;18.980;2022-10-31T08:07:55;384.00;2124.80
55054;DHT22;40954;45.668;18.980;2022-10-31T08:10:21;384.00;2329.60
55054;DHT22;40954;45.668;18.980;2022-10-31T08:12:54;384.00;2329.60
55054;DHT22;40954;45.668;18.980;2022-10-31T08:15:20;384.10;2099.20
55054;DHT22;40954;45.668;18.980;2022-10-31T08:17:45;384.20;2329.60
55054;DHT22;40954;45.668;18.980;2022-10-31T08:20:11;384.10;2329.60
55054;DHT22;40954;45.668;18.980;2022-10-31T08:22:37;384.20;2329.60
55054;DHT22;40954;45.668;18.980;2022-10-31T08:25:02;384.20;2329.60
55054;DHT22;40954;45.668;18.980;2022-10-31T08:27:28;384.20;2329.60
55054;DHT22;40954;45.668;18.980;2022-10-31T08:29:54;384.20;2329.60
55054;DHT22;40954;45.668;18.980;2022-10-31T08:32:19;384.30;2329.60
55054;DHT22;40954;45.668;18.980;2022-10-31T08:34:45;384.30;2329.60
55054;DHT22;40954;45.668;18.980;2022-10-31T08:37:11;384.30;2329.60
55054;DHT22;40954;45.668;18.980;2022-10-31T08:39:38;384.40;2329.60
55054;DHT22;40954;45.668;18.980;2022-10-31T08:42:03;384.50;2329.60
55054;DHT22;40954;45.668;18.980;2022-10-31T08:44:29;384.60;2329.60
55054;DHT22;40954;45.668;18.980;2022-10-31T08:46:55;384.60;2329.60
55054;DHT22;40954;45.668;18.980;2022-10-31T08:49:20;384.80;2329.60
55054;DHT22;40954;45.668;18.980;2022-10-31T08:51:49;384.80;2329.60
55054;DHT22;40954;45.668;18.980;2022-10-31T08:54:14;384.80;2329.60
55054;DHT22;40954;45.668;18.980;2022-10-31T08:56:40;384.80;2329.60
55054;DHT22;40954;45.668;18.980;2022-10-31T08:59:06;384.80;2329.60
55054;DHT22;40954;45.668;18.980;2022-10-31T09:01:31;384.90;2329.60
55054;DHT22;40954;45.668;18.980;2022-10-31T09:03:57;384.90;2329.60
55054;DHT22;40954;45.668;18.980;2022-10-31T09:06:23;409.60;2355.20
55054;DHT22;40954;45.668;18.980;2022-10-31T09:08:48;409.60;2355.20
55054;DHT22;40954;45.668;18.980;2022-10-31T09:11:14;409.60;2355.20
55054;DHT22;40954;45.668;18.980;2022-10-31T09:13:40;384.90;2329.60
55054;DHT22;40954;45.668;18.980;2022-10-31T09:16:06;384.90;2329.60
55054;DHT22;40954;45.668;18.980;2022-10-31T09:18:32;409.60;2355.20
55054;DHT22;40954;45.668;18.980;2022-10-31T09:20:58;409.60;2355.20
55054;DHT22;40954;45.668;18.980;2022-10-31T09:23:24;409.80;2355.20
55054;DHT22;40954;45.668;18.980;2022-10-31T09:25:52;409.90;2355.20
55054;DHT22;40954;45.668;18.980;2022-10-31T09:28:20;409.80;2355.20
55054;DHT22;40954;45.668;18.980;2022-10-31T09:30:48;409.90;2355.20
55054;DHT22;40954;45.668;18.980;2022-10-31T09:33:14;410.10;2355.20
55054;DHT22;40954;45.668;18.980;2022-10-31T09:35:41;410.00;2355.20
55054;DHT22;40954;45.668;18.980;2022-10-31T09:38:13;410.00;2355.20
55054;DHT22;40954;45.668;18.980;2022-10-31T09:40:47;410.00;2355.20
55054;DHT22;40954;45.668;18.980;2022-10-31T09:51:40;410.00;2355.20
55054;DHT22;40954;45.668;18.980;2022-10-31T09:54:32;410.10;2355.20
55054;DHT22;40954;45.668;18.980;2022-10-31T09:56:59;410.00;2355.20
55054;DHT22;40954;45.668;18.980;2022-10-31T09:59:37;410.00;2355.20
55054;DHT22;40954;45.668;18.980;2022-10-31T10:02:35;410.00;2355.20
55054;DHT22;40954;45.668;18.980;2022-10-31T10:05:14;410.10;2355.20
55054;DHT22;40954;45.668;18.980;2022-10-31T10:08:02;410.20;2355.20
55054;DHT22;40954;45.668;18.980;2022-10-31T10:26:18;435.20;2355.20
55054;DHT22;40954;45.668;18.980;2022-10-31T10:28:49;435.30;2355.20
55054;DHT22;40954;45.668;18.980;2022-10-31T10:31:18;435.40;2355.20
55054;DHT22;40954;45.668;18.980;2022-10-31T10:39:13;435.70;2355.20
55054;DHT22;40954;45.668;18.980;2022-10-31T10:41:43;435.70;2355.20
55054;DHT22;40954;45.668;18.980;2022-10-31T10:44:10;435.60;2355.20
55054;DHT22;40954;45.668;18.980;2022-10-31T10:46:48;435.60;2355.20
55054;DHT22;40954;45.668;18.980;2022-10-31T10:49:51;435.60;2355.20
55054;DHT22;40954;45.668;18.980;2022-10-31T10:57:53;435.80;2355.20
55054;DHT22;40954;45.668;18.980;2022-10-31T11:00:26;435.50;2355.20
55054;DHT22;40954;45.668;18.980;2022-10-31T11:02:53;435.60;2355.20
55054;DHT22;40954;45.668;18.980;2022-10-31T11:08:10;435.90;2355.20
55054;DHT22;40954;45.668;18.980;2022-10-31T11:13:21;436.00;2355.20
55054;DHT22;40954;45.668;18.980;2022-10-31T11:16:28;460.80;2380.80
55054;DHT22;40954;45.668;18.980;2022-10-31T11:19:12;460.90;2380.80
55054;DHT22;40954;45.668;18.980;2022-10-31T11:21:42;460.80;2380.80
55054;DHT22;40954;45.668;18.980;2022-10-31T11:26:37;460.90;2380.80
55054;DHT22;40954;45.668;18.980;2022-10-31T11:31:41;461.00;2380.80
55054;DHT22;40954;45.668;18.980;2022-10-31T11:34:17;460.90;2380.80
55054;DHT22;40954;45.668;18.980;2022-10-31T11:36:44;460.90;2380.80
55054;DHT22;40954;45.668;18.980;2022-10-31T11:39:23;461.00;2380.80
55054;DHT22;40954;45.668;18.980;2022-10-31T11:41:51;461.10;2380.80
55054;DHT22;40954;45.668;18.980;2022-10-31T11:54:22;461.10;2380.80
55054;DHT22;40954;45.668;18.980;2022-10-31T11:56:49;461.00;2380.80
55054;DHT22;40954;45.668;18.980;2022-10-31T11:59:21;461.10;2380.80
55054;DHT22;40954;45.668;18.980;2022-10-31T13:29:27;461.10;2380.80
55054;DHT22;40954;45.668;18.980;2022-10-31T13:31:54;460.90;2380.80
55054;DHT22;40954;45.668;18.980;2022-10-31T13:34:33;460.90;2380.80
55054;DHT22;40954;45.668;18.980;2022-10-31T13:37:05;460.80;2380.80
55054;DHT22;40954;45.668;18.980;2022-10-31T13:45:35;461.00;2380.80
55054;DHT22;40954;45.668;18.980;2022-10-31T13:48:28;460.90;2380.80
55054;DHT22;40954;45.668;18.980;2022-10-31T13:51:04;460.80;2380.80
55054;DHT22;40954;45.668;18.980;2022-10-31T13:53:36;436.10;2355.20
55054;DHT22;40954;45.668;18.980;2022-10-31T13:58:34;436.10;2355.20
55054;DHT22;40954;45.668;18.980;2022-10-31T14:03:36;436.10;2355.20
55054;DHT22;40954;45.668;18.980;2022-10-31T14:06:03;436.00;2355.20
55054;DHT22;40954;45.668;18.980;2022-10-31T14:08:33;436.00;2355.20
55054;DHT22;40954;45.668;18.980;2022-10-31T14:11:00;435.90;2355.20
55054;DHT22;40954;45.668;18.980;2022-10-31T14:13:38;435.90;2355.20
55054;DHT22;40954;45.668;18.980;2022-10-31T14:16:28;435.80;2355.20
55054;DHT22;40954;45.668;18.980;2022-10-31T14:19:17;435.80;2355.20
55054;DHT22;40954;45.668;18.980;2022-10-31T14:21:45;435.70;2355.20
55054;DHT22;40954;45.668;18.980;2022-10-31T14:26:57;435.60;2355.20
55054;DHT22;40954;45.668;18.980;2022-10-31T14:29:29;435.60;2355.20
55054;DHT22;40954;45.668;18.980;2022-10-31T14:48:00;435.30;2355.20
55054;DHT22;40954;45.668;18.980;2022-10-31T14:50:33;435.20;2355.20
55054;DHT22;40954;45.668;18.980;2022-10-31T14:53:04;410.50;2355.20
55054;DHT22;40954;45.668;18.980;2022-10-31T14:58:06;410.40;2355.20
55054;DHT22;40954;45.668;18.980;2022-10-31T15:00:33;410.30;2355.20
55054;DHT22;40954;45.668;18.980;2022-10-31T15:05:51;410.10;2355.20
55054;DHT22;40954;45.668;18.980;2022-10-31T15:10:55;410.00;2355.20
55054;DHT22;40954;45.668;18.980;2022-10-31T15:13:21;409.90;2355.20
55054;DHT22;40954;45.668;18.980;2022-10-31T15:15:49;409.90;2355.20
55054;DHT22;40954;45.668;18.980;2022-10-31T15:18:17;409.80;2355.20
55054;DHT22;40954;45.668;18.980;2022-10-31T15:20:45;409.80;2355.20
55054;DHT22;40954;45.668;18.980;2022-10-31T15:23:26;409.80;2355.20
55054;DHT22;40954;45.668;18.980;2022-10-31T15:26:03;409.70;2355.20
55054;DHT22;40954;45.668;18.980;2022-10-31T15:28:30;409.60;2355.20
55054;DHT22;40954;45.668;18.980;2022-10-31T15:30:58;409.60;2355.20
55054;DHT22;40954;45.668;18.980;2022-10-31T15:33:30;384.90;2329.60
55054;DHT22;40954;45.668;18.980;2022-10-31T15:36:00;409.60;2355.20
55054;DHT22;40954;45.668;18.980;2022-10-31T15:38:27;384.90;2329.60
55054;DHT22;40954;45.668;18.980;2022-10-31T15:41:05;384.80;2329.60
55054;DHT22;40954;45.668;18.980;2022-10-31T15:43:44;384.80;2329.60
55054;DHT22;40954;45.668;18.980;2022-10-31T15:46:11;384.80;2329.60
55054;DHT22;40954;45.668;18.980;2022-10-31T15:48:37;384.80;2329.60
55054;DHT22;40954;45.668;18.980;2022-10-31T15:51:04;384.90;2329.60
55054;DHT22;40954;45.668;18.980;2022-10-31T15:53:37;384.90;2329.60
55054;DHT22;40954;45.668;18.980;2022-10-31T15:56:08;409.60;2355.20
55054;DHT22;40954;45.668;18.980;2022-10-31T15:58:42;409.60;2355.20
55054;DHT22;40954;45.668;18.980;2022-10-31T16:01:27;384.90;2329.60
55054;DHT22;40954;45.668;18.980;2022-10-31T16:04:05;384.90;2329.60
55054;DHT22;40954;45.668;18.980;2022-10-31T16:07:14;384.90;2329.60
55054;DHT22;40954;45.668;18.980;2022-10-31T16:09:58;384.90;2329.60
55054;DHT22;40954;45.668;18.980;2022-10-31T16:12:29;384.90;2329.60
55054;DHT22;40954;45.668;18.980;2022-10-31T16:14:56;384.90;2329.60
55054;DHT22;40954;45.668;18.980;2022-10-31T16:17:24;384.90;2329.60
55054;DHT22;40954;45.668;18.980;2022-10-31T16:19:58;384.90;2329.60
55054;DHT22;40954;45.668;18.980;2022-10-31T16:22:29;384.90;2329.60
55054;DHT22;40954;45.668;18.980;2022-10-31T16:25:15;384.90;2329.60
55054;DHT22;40954;45.668;18.980;2022-10-31T16:27:48;384.90;2329.60
55054;DHT22;40954;45.668;18.980;2022-10-31T16:30:35;384.80;2329.60
55054;DHT22;40954;45.668;18.980;2022-10-31T16:33:02;384.80;2329.60
55054;DHT22;40954;45.668;18.980;2022-10-31T16:37:58;384.80;2329.60
55054;DHT22;40954;45.668;18.980;2022-10-31T16:40:24;384.80;2329.60
55054;DHT22;40954;45.668;18.980;2022-10-31T16:42:50;384.70;2329.60
55054;DHT22;40954;45.668;18.980;2022-10-31T16:45:20;384.80;2329.60
55054;DHT22;40954;45.668;18.980;2022-10-31T16:47:46;384.70;2329.60
55054;DHT22;40954;45.668;18.980;2022-10-31T16:50:15;384.70;2329.60
55054;DHT22;40954;45.668;18.980;2022-10-31T16:52:42;384.70;2329.60
55054;DHT22;40954;45.668;18.980;2022-10-31T16:55:11;384.70;2329.60
55054;DHT22;40954;45.668;18.980;2022-10-31T16:57:38;384.70;2329.60
55054;DHT22;40954;45.668;18.980;2022-10-31T17:00:07;384.70;2329.60
55054;DHT22;40954;45.668;18.980;2022-10-31T17:02:33;384.60;2329.60
55054;DHT22;40954;45.668;18.980;2022-10-31T17:04:58;384.60;2329.60
55054;DHT22;40954;45.668;18.980;2022-10-31T17:07:24;384.60;2329.60
55054;DHT22;40954;45.668;18.980;2022-10-31T17:09:50;384.60;2329.60
55054;DHT22;40954;45.668;18.980;2022-10-31T17:12:17;384.60;2329.60
55054;DHT22;40954;45.668;18.980;2022-10-31T17:14:47;384.60;2329.60
55054;DHT22;40954;45.668;18.980;2022-10-31T17:17:15;384.60;2329.60
55054;DHT22;40954;45.668;18.980;2022-10-31T17:19:41;384.50;2329.60
55054;DHT22;40954;45.668;18.980;2022-10-31T17:22:12;384.50;2329.60
55054;DHT22;40954;45.668;18.980;2022-10-31T17:24:38;384.50;2329.60
55054;DHT22;40954;45.668;18.980;2022-10-31T17:27:03;384.50;2329.60
55054;DHT22;40954;45.668;18.980;2022-10-31T17:29:29;384.50;2329.60
55054;DHT22;40954;45.668;18.980;2022-10-31T17:31:55;384.50;2329.60
55054;DHT22;40954;45.668;18.980;2022-10-31T17:34:20;384.50;2329.60
55054;DHT22;40954;45.668;18.980;2022-10-31T17:36:50;384.50;2329.60
55054;DHT22;40954;45.668;18.980;2022-10-31T17:39:17;384.50;2329.60
55054;DHT22;40954;45.668;18.980;2022-10-31T17:41:43;384.40;2329.60
55054;DHT22;40954;45.668;18.980;2022-10-31T17:44:10;384.40;2329.60
55054;DHT22;40954;45.668;18.980;2022-10-31T17:46:37;384.40;2329.60
55054;DHT22;40954;45.668;18.980;2022-10-31T17:49:03;384.40;2329.60
55054;DHT22;40954;45.668;18.980;2022-10-31T17:51:34;384.40;2329.60
55054;DHT22;40954;45.668;18.980;2022-10-31T17:53:59;384.30;2329.60
55054;DHT22;40954;45.668;18.980;2022-10-31T17:56:25;384.40;2329.60
55054;DHT22;40954;45.668;18.980;2022-10-31T17:58:51;384.30;2329.60
55054;DHT22;40954;45.668;18.980;2022-10-31T18:01:18;384.30;2329.60
55054;DHT22;40954;45.668;18.980;2022-10-31T18:03:44;384.30;2329.60
55054;DHT22;40954;45.668;18.980;2022-10-31T18:06:10;384.20;1945.60
55054;DHT22;40954;45.668;18.980;2022-10-31T18:08:39;384.20;2022.40
55054;DHT22;40954;45.668;18.980;2022-10-31T18:11:07;384.20;2048.00
55054;DHT22;40954;45.668;18.980;2022-10-31T18:13:34;384.20;2099.20
55054;DHT22;40954;45.668;18.980;2022-10-31T18:16:00;384.20;1996.80
55054;DHT22;40954;45.668;18.980;2022-10-31T18:18:26;384.20;1971.20
55054;DHT22;40954;45.668;18.980;2022-10-31T18:20:56;384.20;2329.60
55054;DHT22;40954;45.668;18.980;2022-10-31T18:23:21;384.20;1945.60
55054;DHT22;40954;45.668;18.980;2022-10-31T18:25:47;384.20;1945.60
55054;DHT22;40954;45.668;18.980;2022-10-31T18:28:13;384.20;2329.60
55054;DHT22;40954;45.668;18.980;2022-10-31T18:30:39;384.20;1996.80
55054;DHT22;40954;45.668;18.980;2022-10-31T18:33:06;384.10;1996.80
55054;DHT22;40954;45.668;18.980;2022-10-31T18:35:35;384.20;1945.60
55054;DHT22;40954;45.668;18.980;2022-10-31T18:38:01;384.10;2329.60